Airfield :
LOGIN :

Register | Disclaimer

   EN    FR    IT 

 










Legend :    VFR   Marginal VFR   IFR   Intensive IFR   Very Intensive IFR
Visi :
Ceiling :
>= 8 km
>= 3000ft
5 to 8 km
1000 to 3000 ft
1500m to 5 km
500 to 1000 ft
800 to 1500m
200 to 500 ft
< 800m
< 200 ft
Symbols :   Thunderstorms  Fog  Heavy snow  Heavy precipitations  Wind > 20 kt
SIGMETs :     Misc.  Thunderstorms  Icing  Turbulence  Mountain Waves  Volcanic Ashes






- Airport Elevation : 2001 ft
- IATA code : MAD


LEMD - Madrid

CURRENT METAR :
  • 210030Z 17004KT 5000 2400S BR SCT008 BKN015 OVC032 06/05 Q1008 R88/29//95 NOSIG

EXPIRED METARs :
  • 210000Z 16004KT 5000 BR SCT007 BKN011 OVC032 06/06 Q1009 R88/29//95 NOSIG
  • 202330Z VRB02KT 3500 BR SCT007 BKN011 BKN030 06/05 Q1009 R88/29//95 NOSIG
  • 202300Z 13003KT 090V160 4000 BR SCT006 BKN010 BKN030 06/06 Q1009 R88/29//95 NOSIG
  • 202230Z VRB01KT 4500 BR SCT005 BKN009 BKN030 06/05 Q1009 R88/29//95 NOSIG
  • 202200Z VRB02KT 5000 -DZ BR SCT006 BKN013 BKN035 06/05 Q1009 R88/29//95 NOSIG

TAF TAF LEMD
Valid from the 21 at 00:00 until the 22 at 06:00 UTC


202300Z 2100/2206 VRB05KT 9999 SCT010 BKN035 TX10/2114Z TN03/2106Z
TEMPO 2100/2122 BKN012
PROB40
TEMPO 2100/2109 1500 BCFG BKN003
PROB30
TEMPO 2102/2109 0400 FG BKN001
PROB40
TEMPO 2112/2118 22008G18KT
PROB30
TEMPO 2108/2124 4000 DZ BKN008



MET'MAP, your aeronautical weather chart ! - Copyright ORBIFLY December 2007 - Disclaimer

ORBIFLY MET'MAP TEAM :

Programming & Development : Alexandra Zaïnal
Concept & Development : Baudouin d'Aumeries
Co-Development & Prog : Marc-Olivier Méhu
Technical & hardware support : Manuel Goepfert

Contact : metmap@orbifly.com




SOURCES & CREDITS :

   NOAA